Аэропорт: Кривой Рог. Кривой Рог

ICAO: UKDR

METAR:
2019-11-21 09:30:00
UKDR 210930Z 10007MPS 030V140 CAVOK M01/M07 Q1035 R36/09//70 TEMPO 09010G15MPS
METAR:
2019-11-21 05:26:00
TAF AMD UKDR 210526Z 2106/2206 09007G12MPS 9999 BKN011 TXM00/2106Z TNM07/2203Z TEMPO 2106/2122 09010G15MPS